Time;durP1;ratioP1;P1;durP2;ratioP2;P2;SDS_P1;SDS_P2;PMS_P1;PMS_P2;Temp;Humidity;BMP_temperature;BMP_pressure;BME280_temperature;BME280_humidity;BME280_pressure;Samples;Min_cycle;Max_cycle;Signal;HPM_P1;HPM_P2
2022/03/16 00:00:36;;;;;;;9.30;3.35;;;;;;;-2.71;72.62;101603.60;1691073;84;21646;-68
2022/03/16 00:03:04;;;;;;;7.45;3.52;;;;;;;-2.72;72.37;101587.26;1691089;84;21573;-67
2022/03/16 00:05:31;;;;;;;6.62;3.37;;;;;;;-2.75;72.26;101597.46;1691116;84;21105;-68
2022/03/16 00:07:57;;;;;;;8.05;3.40;;;;;;;-2.78;72.18;101587.91;1691139;84;21047;-68
2022/03/16 00:10:26;;;;;;;5.90;3.33;;;;;;;-2.80;72.32;101594.70;1691051;84;21651;-67
2022/03/16 00:12:52;;;;;;;6.17;3.05;;;;;;;-2.84;72.42;101592.80;1691082;84;21052;-68
2022/03/16 00:15:19;;;;;;;6.45;2.98;;;;;;;-2.85;72.31;101596.21;1691031;84;21076;-67
2022/03/16 00:17:45;;;;;;;6.72;2.62;;;;;;;-2.89;72.39;101593.45;1690943;84;21032;-68
2022/03/16 00:20:14;;;;;;;8.20;3.50;;;;;;;-2.93;72.56;101585.11;1719863;83;21049;-67
2022/03/16 00:22:41;;;;;;;6.67;3.37;;;;;;;-2.95;72.38;101590.19;1719714;83;21149;-67
2022/03/16 00:25:10;;;;;;;7.55;3.42;;;;;;;-2.95;72.07;101591.48;1690922;84;21064;-67
2022/03/16 00:27:37;;;;;;;6.33;3.35;;;;;;;-2.98;71.88;101594.81;1691017;84;21084;-67
2022/03/16 00:30:06;;;;;;;6.87;2.80;;;;;;;-3.00;71.62;101596.86;1691004;84;21095;-67
2022/03/16 00:32:32;;;;;;;6.53;2.90;;;;;;;-3.02;70.83;101592.05;1691264;84;21139;-66
2022/03/16 00:34:59;;;;;;;5.17;3.08;;;;;;;-3.06;70.83;101587.19;1691041;84;21212;-67
2022/03/16 00:37:28;;;;;;;4.80;2.47;;;;;;;-3.07;70.44;101592.27;1690976;84;21064;-68
2022/03/16 00:39:56;;;;;;;7.33;2.65;;;;;;;-3.10;70.22;101590.86;1691415;84;21099;-67
2022/03/16 00:42:23;;;;;;;5.90;2.80;;;;;;;-3.12;70.18;101591.20;1691233;84;21060;-67
2022/03/16 00:44:49;;;;;;;5.12;2.55;;;;;;;-3.13;69.77;101585.56;1691179;84;21108;-67
2022/03/16 00:47:16;;;;;;;5.08;2.45;;;;;;;-3.14;69.59;101586.39;1691134;84;21241;-68
2022/03/16 00:49:43;;;;;;;6.72;2.77;;;;;;;-3.16;69.36;101583.73;1688379;84;21052;-68
2022/03/16 00:52:10;;;;;;;4.47;2.35;;;;;;;-3.16;69.38;101594.91;1701474;84;21640;-68
2022/03/16 00:54:36;;;;;;;3.67;2.40;;;;;;;-3.20;69.37;101600.78;1700078;83;21033;-68
2022/03/16 00:57:04;;;;;;;5.65;2.50;;;;;;;-3.21;69.35;101589.98;1709508;83;21139;-66
2022/03/16 00:59:31;;;;;;;7.20;2.87;;;;;;;-3.23;69.50;101592.90;1699981;84;21859;-68
2022/03/16 01:01:58;;;;;;;3.47;2.20;;;;;;;-3.25;69.58;101594.95;1709590;83;21085;-67
2022/03/16 01:04:24;;;;;;;6.90;2.67;;;;;;;-3.29;69.86;101597.81;1699971;84;21148;-68
2022/03/16 01:06:53;;;;;;;4.42;2.20;;;;;;;-3.31;69.91;101598.53;1709559;83;21021;-67
2022/03/16 01:09:21;;;;;;;7.60;2.83;;;;;;;-3.33;70.22;101595.05;1700213;84;21090;-67
2022/03/16 01:11:48;;;;;;;5.47;3.22;;;;;;;-3.36;70.35;101593.19;1709734;83;21213;-67
2022/03/16 01:14:16;;;;;;;6.20;3.08;;;;;;;-3.38;70.51;101592.27;1700046;84;21072;-68
2022/03/16 01:16:43;;;;;;;6.60;2.65;;;;;;;-3.39;70.71;101587.91;1709475;83;21627;-66
2022/03/16 01:19:14;;;;;;;4.53;2.22;;;;;;;-3.39;70.95;101587.91;1699946;84;21014;-69
2022/03/16 01:21:39;;;;;;;5.17;2.47;;;;;;;-3.40;70.90;101581.02;1709331;83;21057;-67
2022/03/16 01:24:08;;;;;;;4.00;2.30;;;;;;;-3.43;71.09;101580.48;1697325;84;21537;-69
2022/03/16 01:26:37;;;;;;;4.62;2.30;;;;;;;-3.44;71.10;101579.12;1709471;83;21045;-68
2022/03/16 01:29:04;;;;;;;4.15;2.30;;;;;;;-3.48;71.27;101578.09;1700183;84;21065;-68
2022/03/16 01:31:32;;;;;;;5.85;2.80;;;;;;;-3.49;71.41;101580.20;1709420;83;21699;-69
2022/03/16 01:33:59;;;;;;;3.85;2.08;;;;;;;-3.50;71.62;101586.56;1674122;84;21049;-69
2022/03/16 01:36:26;;;;;;;5.10;2.60;;;;;;;-3.54;71.91;101588.53;1709697;83;22050;-68
2022/03/16 01:38:53;;;;;;;4.75;2.60;;;;;;;-3.56;71.74;101589.77;1700015;84;21030;-67
2022/03/16 01:41:20;;;;;;;4.40;2.15;;;;;;;-3.58;71.85;101588.82;1709681;83;21120;-68
2022/03/16 01:43:53;;;;;;;6.25;2.70;;;;;;;-3.62;72.01;101580.06;1699994;84;21140;-68
2022/03/16 01:46:21;;;;;;;5.20;2.85;;;;;;;-3.61;71.83;101582.27;1709724;83;21530;-67
2022/03/16 01:48:51;;;;;;;4.15;2.72;;;;;;;-3.65;71.98;101582.52;1695881;84;21643;-67
2022/03/16 01:51:19;;;;;;;6.25;2.87;;;;;;;-3.66;72.22;101587.20;1654923;85;21059;-66
2022/03/16 01:53:46;;;;;;;7.87;2.40;;;;;;;-3.65;72.21;101584.22;1677605;85;21021;-66
2022/03/16 01:56:16;;;;;;;4.35;2.50;;;;;;;-3.68;72.19;101586.26;1643807;87;21564;-67
2022/03/16 01:58:43;;;;;;;4.22;2.27;;;;;;;-3.68;72.02;101586.64;1704879;84;21097;-68
2022/03/16 02:01:10;;;;;;;5.20;2.65;;;;;;;-3.71;72.18;101592.54;1704999;84;22005;-67
2022/03/16 02:03:37;;;;;;;4.92;2.20;;;;;;;-3.73;72.28;101587.72;1704929;84;21629;-68
2022/03/16 02:06:04;;;;;;;7.65;3.02;;;;;;;-3.74;72.59;101587.27;1705056;84;21122;-67
2022/03/16 02:08:33;;;;;;;7.17;2.55;;;;;;;-3.77;72.48;101589.71;1704880;84;21101;-69
2022/03/16 02:11:00;;;;;;;6.17;2.42;;;;;;;-3.81;72.52;101588.68;1705247;84;21045;-68
2022/03/16 02:13:26;;;;;;;5.00;2.75;;;;;;;-3.85;72.59;101584.20;1704853;84;21246;-69
2022/03/16 02:15:53;;;;;;;6.28;2.50;;;;;;;-3.85;72.61;101583.33;1704814;84;21046;-68
2022/03/16 02:18:19;;;;;;;5.97;2.50;;;;;;;-3.86;72.80;101592.75;1704851;84;21088;-68
2022/03/16 02:20:50;;;;;;;4.37;2.10;;;;;;;-3.89;72.91;101591.72;1704760;84;21074;-66
2022/03/16 02:23:18;;;;;;;5.15;2.40;;;;;;;-3.89;72.83;101586.56;1705084;84;21058;-68
2022/03/16 02:25:51;;;;;;;5.53;2.58;;;;;;;-3.92;72.85;101587.73;1704995;84;21309;-67
2022/03/16 02:28:19;;;;;;;4.80;2.77;;;;;;;-3.96;73.18;101592.25;1701800;83;21054;-67
2022/03/16 02:30:46;;;;;;;5.75;2.92;;;;;;;-4.01;73.60;101595.49;1705352;84;21077;-68
2022/03/16 02:33:15;;;;;;;4.25;2.40;;;;;;;-3.99;73.50;101603.30;1704719;84;21539;-66
2022/03/16 02:35:41;;;;;;;3.65;2.15;;;;;;;-4.03;73.81;101597.11;1704974;83;21624;-67
2022/03/16 02:38:09;;;;;;;5.05;2.50;;;;;;;-4.05;74.37;101598.77;1705271;84;21317;-67
2022/03/16 02:40:37;;;;;;;5.97;3.30;;;;;;;-4.08;74.39;101599.89;1705072;84;21054;-66
2022/03/16 02:43:04;;;;;;;5.45;2.77;;;;;;;-4.09;74.40;101595.98;1704927;84;21086;-66
2022/03/16 02:45:31;;;;;;;4.50;2.47;;;;;;;-4.12;74.57;101599.27;1704925;84;21046;-67
2022/03/16 02:47:58;;;;;;;5.33;2.45;;;;;;;-4.14;74.65;101588.05;1705099;84;21593;-67
2022/03/16 02:50:25;;;;;;;5.57;2.87;;;;;;;-4.16;74.75;101587.09;1728510;82;21116;-68
2022/03/16 02:52:52;;;;;;;5.00;2.60;;;;;;;-4.16;74.97;101602.53;1734434;82;21594;-68
2022/03/16 02:55:20;;;;;;;2.75;1.90;;;;;;;-4.18;75.04;101597.72;1734411;82;21612;-67
2022/03/16 02:57:46;;;;;;;6.37;2.45;;;;;;;-4.20;75.26;101599.34;1734001;82;21030;-67
2022/03/16 03:00:15;;;;;;;4.75;2.22;;;;;;;-4.21;75.41;101606.56;1734226;82;21007;-68
2022/03/16 03:02:42;;;;;;;4.87;2.17;;;;;;;-4.24;75.50;101594.44;1734414;82;21100;-69
2022/03/16 03:05:09;;;;;;;6.05;2.67;;;;;;;-4.25;75.64;101594.39;1734070;82;21015;-67
2022/03/16 03:07:36;;;;;;;5.53;2.85;;;;;;;-4.32;76.07;101593.22;1734336;82;21574;-67
2022/03/16 03:10:06;;;;;;;6.78;3.05;;;;;;;-4.33;76.07;101592.72;1734402;82;21054;-68
2022/03/16 03:12:35;;;;;;;6.10;3.00;;;;;;;-4.34;76.16;101599.11;1734182;82;21070;-68
2022/03/16 03:15:04;;;;;;;7.93;2.90;;;;;;;-4.37;76.76;101600.23;1734401;82;21031;-67
2022/03/16 03:17:32;;;;;;;5.47;2.65;;;;;;;-4.38;76.85;101594.62;1734337;82;21022;-68
2022/03/16 03:19:59;;;;;;;6.60;3.10;;;;;;;-4.40;76.45;101593.66;1734534;82;20999;-67
2022/03/16 03:22:27;;;;;;;8.75;3.35;;;;;;;-4.44;77.12;101592.24;1734304;82;21034;-67
2022/03/16 03:24:55;;;;;;;7.30;2.80;;;;;;;-4.47;77.54;101595.94;1734533;82;21054;-66
2022/03/16 03:27:22;;;;;;;6.05;2.80;;;;;;;-4.49;77.91;101592.41;1734157;82;21300;-67
2022/03/16 03:29:48;;;;;;;5.25;2.77;;;;;;;-4.51;78.27;101590.58;1734198;82;21026;-67
2022/03/16 03:32:15;;;;;;;5.90;2.87;;;;;;;-4.53;78.15;101594.38;1734044;82;21083;-66
2022/03/16 03:34:46;;;;;;;6.10;2.53;;;;;;;-4.55;78.03;101599.85;1734142;82;21102;-67
2022/03/16 03:37:10;;;;;;;5.78;3.12;;;;;;;-4.59;78.39;101601.79;1733976;82;21034;-67
2022/03/16 03:39:37;;;;;;;5.83;2.50;;;;;;;-4.59;78.39;101612.08;1734358;82;21226;-66
2022/03/16 03:42:06;;;;;;;5.08;2.70;;;;;;;-4.62;78.55;101610.66;1734104;82;21011;-68
2022/03/16 03:44:37;;;;;;;4.17;2.17;;;;;;;-4.66;78.70;101613.47;1734499;82;21598;-67
2022/03/16 03:47:06;;;;;;;5.67;2.90;;;;;;;-4.67;78.91;101612.09;1734088;82;21046;-67
2022/03/16 03:49:35;;;;;;;9.07;5.13;;;;;;;-4.71;78.99;101608.92;1721272;82;21094;-68
2022/03/16 03:52:04;;;;;;;6.17;2.83;;;;;;;-4.71;79.07;101611.49;1704724;84;21757;-68
2022/03/16 03:54:30;;;;;;;5.53;3.08;;;;;;;-4.75;79.24;101613.43;1709612;83;21518;-67
2022/03/16 03:56:58;;;;;;;16.40;4.20;;;;;;;-4.77;79.44;101609.48;1718440;83;21094;-67
2022/03/16 03:59:25;;;;;;;7.63;3.57;;;;;;;-4.79;79.54;101610.22;1718540;83;21049;-70
2022/03/16 04:01:52;;;;;;;6.12;3.00;;;;;;;-4.82;79.67;101611.37;1718428;83;21009;-69
2022/03/16 04:04:19;;;;;;;5.77;2.50;;;;;;;-4.86;79.91;101608.62;1718429;83;21250;-68
2022/03/16 04:06:45;;;;;;;5.33;2.97;;;;;;;-4.87;80.29;101609.86;1718438;83;21038;-68
2022/03/16 04:09:13;;;;;;;5.37;2.77;;;;;;;-4.89;80.62;101608.48;1718461;83;21057;-67
2022/03/16 04:11:40;;;;;;;7.40;2.90;;;;;;;-4.89;81.12;101617.48;1718385;83;21104;-67
2022/03/16 04:14:07;;;;;;;7.80;2.50;;;;;;;-4.89;81.27;101620.05;1718537;83;21549;-67
2022/03/16 04:16:33;;;;;;;8.67;2.90;;;;;;;-4.92;81.99;101614.77;1718505;83;21592;-68
2022/03/16 04:19:01;;;;;;;7.87;3.00;;;;;;;-4.90;82.27;101623.81;1718180;83;21046;-68
2022/03/16 04:21:27;;;;;;;6.80;2.80;;;;;;;-4.93;82.86;101617.25;1718444;83;21065;-68
2022/03/16 04:23:55;;;;;;;6.70;3.10;;;;;;;-4.93;82.68;101620.70;1718348;83;21025;-68
2022/03/16 04:26:22;;;;;;;5.97;3.10;;;;;;;-4.94;82.99;101607.39;1718641;83;21112;-67
2022/03/16 04:28:49;;;;;;;8.50;3.73;;;;;;;-4.93;83.02;101619.41;1718352;83;21243;-67
2022/03/16 04:31:15;;;;;;;4.57;2.60;;;;;;;-4.92;82.96;101613.48;1718613;83;21097;-67
2022/03/16 04:33:42;;;;;;;7.00;2.80;;;;;;;-4.93;83.28;101609.14;1718463;83;21096;-68
2022/03/16 04:36:08;;;;;;;4.07;2.37;;;;;;;-4.90;83.27;101618.67;1718502;83;21037;-68
2022/03/16 04:38:36;;;;;;;6.30;2.90;;;;;;;-4.89;83.58;101626.47;1718542;83;21061;-67
2022/03/16 04:41:03;;;;;;;5.30;2.83;;;;;;;-4.59;83.83;101624.92;1718568;83;21242;-68
2022/03/16 04:43:30;;;;;;;4.57;2.53;;;;;;;-4.08;82.04;101618.31;1718531;83;21065;-68
2022/03/16 04:45:57;;;;;;;7.08;2.72;;;;;;;-3.69;79.16;101616.66;1718498;83;21514;-68
2022/03/16 04:48:24;;;;;;;5.90;3.25;;;;;;;-3.55;77.78;101617.69;1718330;83;21186;-68
2022/03/16 04:50:50;;;;;;;6.90;2.98;;;;;;;-3.63;77.29;101625.08;1718437;83;21021;-68
2022/03/16 04:53:18;;;;;;;6.83;3.35;;;;;;;-3.76;77.53;101624.92;1718183;83;21120;-67
2022/03/16 04:55:45;;;;;;;6.03;3.08;;;;;;;-3.90;77.98;101627.29;1718266;83;21049;-68
2022/03/16 04:58:12;;;;;;;6.12;3.10;;;;;;;-4.03;78.66;101630.56;1718260;83;21565;-66
2022/03/16 05:00:39;;;;;;;8.30;3.83;;;;;;;-4.13;79.46;101634.83;1726334;82;21045;-66
2022/03/16 05:03:06;;;;;;;5.25;2.95;;;;;;;-4.18;80.07;101632.45;1748234;82;21038;-67
2022/03/16 05:05:32;;;;;;;8.08;3.35;;;;;;;-3.86;80.17;101633.94;1748182;82;21231;-67
2022/03/16 05:08:00;;;;;;;8.18;3.65;;;;;;;-3.37;78.86;101638.69;1748227;82;21088;-68
2022/03/16 05:10:28;;;;;;;5.83;3.33;;;;;;;-2.68;75.90;101639.85;1750804;79;20955;-66
2022/03/16 05:12:55;;;;;;;8.28;3.65;;;;;;;-1.94;73.34;101639.34;1753253;76;20995;-67
2022/03/16 05:15:22;;;;;;;10.32;4.50;;;;;;;-1.20;69.89;101629.52;1753612;79;20958;-68
2022/03/16 05:17:50;;;;;;;9.63;4.08;;;;;;;-0.75;65.91;101639.27;1753204;76;20975;-67
2022/03/16 05:20:17;;;;;;;9.38;4.10;;;;;;;-0.39;64.10;101645.19;1753024;79;20994;-69
2022/03/16 05:22:49;;;;;;;10.78;3.50;;;;;;;0.01;62.79;101638.64;1748202;82;21081;-68
2022/03/16 05:25:22;;;;;;;9.10;4.37;;;;;;;0.44;60.54;101646.78;1748434;82;21066;-68
2022/03/16 05:27:48;;;;;;;8.78;4.28;;;;;;;0.60;59.62;101645.98;1748218;82;21584;-69
2022/03/16 05:30:15;;;;;;;9.50;3.90;;;;;;;0.80;58.28;101635.27;1748255;82;21113;-69
2022/03/16 05:32:42;;;;;;;7.20;3.77;;;;;;;0.88;57.74;101649.33;1748173;82;21088;-70
2022/03/16 05:35:11;;;;;;;10.43;4.50;;;;;;;1.05;57.17;101645.45;1748309;82;21094;-68
2022/03/16 05:37:39;;;;;;;10.13;4.05;;;;;;;1.25;56.48;101653.76;1748626;81;21037;-69
2022/03/16 05:40:08;;;;;;;8.20;3.70;;;;;;;1.63;56.12;101660.73;1748266;82;21069;-69
2022/03/16 05:42:34;;;;;;;8.20;3.80;;;;;;;1.83;54.72;101659.48;1748410;82;21108;-68
2022/03/16 05:45:01;;;;;;;6.55;3.58;;;;;;;2.02;53.73;101655.58;1748079;82;20998;-68
2022/03/16 05:47:27;;;;;;;6.55;3.87;;;;;;;2.25;53.53;101645.69;1747983;82;21038;-70
2022/03/16 05:49:56;;;;;;;7.35;3.55;;;;;;;2.61;53.05;101651.63;1747967;82;21017;-68
2022/03/16 05:52:25;;;;;;;6.17;3.80;;;;;;;2.90;51.27;101666.52;1748129;82;21100;-68
2022/03/16 05:54:53;;;;;;;6.03;3.50;;;;;;;3.27;50.81;101645.05;1745047;81;21241;-69
2022/03/16 05:57:20;;;;;;;7.95;3.67;;;;;;;3.51;48.98;101654.56;1733964;82;21034;-68
2022/03/16 05:59:47;;;;;;;5.58;3.33;;;;;;;3.61;49.10;101641.68;1734038;82;22220;-67
2022/03/16 06:02:13;;;;;;;6.70;3.72;;;;;;;3.75;47.99;101638.85;1734287;82;21642;-67
2022/03/16 06:04:42;;;;;;;6.42;3.45;;;;;;;3.67;48.37;101643.09;1734194;82;21022;-67
2022/03/16 06:07:08;;;;;;;6.95;3.62;;;;;;;3.92;48.41;101650.42;1734296;82;21235;-68
2022/03/16 06:09:35;;;;;;;7.08;4.10;;;;;;;4.32;48.35;101652.27;1734072;82;21039;-68
2022/03/16 06:12:03;;;;;;;6.10;3.47;;;;;;;4.74;46.38;101651.05;1734305;82;21038;-68
2022/03/16 06:14:31;;;;;;;6.17;3.25;;;;;;;4.77;45.21;101654.98;1734513;82;21006;-70
2022/03/16 06:16:59;;;;;;;5.72;3.25;;;;;;;4.68;45.84;101652.28;1734167;82;21022;-67
2022/03/16 06:19:25;;;;;;;8.40;3.47;;;;;;;4.87;45.53;101650.73;1734148;82;21268;-68
2022/03/16 06:21:52;;;;;;;5.97;3.62;;;;;;;5.31;45.70;101649.42;1734463;82;21096;-68
2022/03/16 06:24:19;;;;;;;17.12;7.37;;;;;;;5.85;44.59;101648.13;1734168;82;21058;-68
2022/03/16 06:26:45;;;;;;;7.05;3.87;;;;;;;6.35;42.58;101646.27;1734156;82;21086;-68
2022/03/16 06:29:12;;;;;;;6.05;3.67;;;;;;;6.49;41.45;101646.32;1734169;82;21085;-68
2022/03/16 06:31:38;;;;;;;7.70;3.50;;;;;;;6.49;41.73;101640.64;1734454;82;21558;-69
2022/03/16 06:34:05;;;;;;;4.92;3.47;;;;;;;6.47;40.99;101645.00;1734075;82;21011;-68
2022/03/16 06:36:31;;;;;;;5.30;3.60;;;;;;;6.73;42.32;101641.59;1734253;82;21090;-69
2022/03/16 06:38:58;;;;;;;4.70;3.30;;;;;;;7.46;41.30;101646.52;1734176;82;21074;-68
2022/03/16 06:41:26;;;;;;;6.55;3.50;;;;;;;8.08;38.72;101642.94;1734184;82;21050;-66
2022/03/16 06:43:54;;;;;;;6.37;3.72;;;;;;;8.19;37.52;101652.97;1734162;82;21250;-67
2022/03/16 06:46:21;;;;;;;6.78;3.70;;;;;;;7.64;37.94;101654.80;1734166;82;21035;-68
2022/03/16 06:48:47;;;;;;;4.47;2.98;;;;;;;7.48;38.05;101653.95;1734060;82;21137;-71
2022/03/16 06:51:14;;;;;;;5.55;2.90;;;;;;;7.26;38.22;101656.54;1734213;82;21086;-69
2022/03/16 06:53:41;;;;;;;4.90;3.40;;;;;;;7.03;39.04;101651.27;1734172;82;21011;-67
2022/03/16 06:56:09;;;;;;;5.92;3.22;;;;;;;7.10;38.92;101656.95;1734207;81;21224;-69
2022/03/16 06:58:35;;;;;;;5.00;3.42;;;;;;;7.20;38.69;101653.94;1734191;82;21054;-68
2022/03/16 07:01:02;;;;;;;5.50;3.02;;;;;;;7.37;38.39;101658.31;1734375;82;21042;-68
2022/03/16 07:03:29;;;;;;;8.08;3.17;;;;;;;7.49;38.39;101655.69;1734239;82;21011;-67
2022/03/16 07:05:57;;;;;;;4.87;3.70;;;;;;;7.41;38.29;101652.17;1734388;82;21018;-68
2022/03/16 07:08:23;;;;;;;6.72;3.47;;;;;;;7.63;37.89;101647.37;1734273;82;21135;-68
2022/03/16 07:10:50;;;;;;;7.05;3.33;;;;;;;7.71;37.73;101657.43;1734181;82;21038;-68
2022/03/16 07:13:18;;;;;;;8.28;3.80;;;;;;;7.59;37.18;101658.73;1734261;81;21038;-68
2022/03/16 07:15:46;;;;;;;7.37;4.10;;;;;;;7.60;37.72;101672.73;1734037;82;21046;-68
2022/03/16 07:18:12;;;;;;;5.05;3.02;;;;;;;7.25;37.78;101674.45;1734158;82;21042;-68
2022/03/16 07:20:40;;;;;;;6.58;3.47;;;;;;;7.40;38.28;101674.03;1734248;82;21236;-68
2022/03/16 07:23:14;;;;;;;6.60;3.80;;;;;;;7.75;37.61;101672.70;1734015;82;21042;-68
2022/03/16 07:25:47;;;;;;;9.08;4.00;;;;;;;7.80;36.93;101673.60;1733686;82;21045;-68
2022/03/16 07:28:16;;;;;;;5.15;3.60;;;;;;;7.81;37.43;101665.29;1734092;82;21032;-68
2022/03/16 07:30:42;;;;;;;6.15;4.00;;;;;;;7.85;37.12;101674.47;1734420;82;21085;-68
2022/03/16 07:33:09;;;;;;;7.45;4.60;;;;;;;8.17;36.30;101673.09;1733946;82;21732;-68
2022/03/16 07:35:36;;;;;;;5.37;3.77;;;;;;;8.33;35.18;101669.99;1734088;82;21546;-68
2022/03/16 07:38:03;;;;;;;7.12;3.77;;;;;;;8.50;35.65;101671.27;1734187;82;22075;-69
2022/03/16 07:40:33;;;;;;;6.85;3.55;;;;;;;8.67;34.62;101675.13;1734256;82;21605;-68
2022/03/16 07:42:59;;;;;;;14.28;6.42;;;;;;;8.52;34.99;101666.89;1734144;82;21037;-68
2022/03/16 07:45:27;;;;;;;7.62;3.98;;;;;;;8.98;34.87;101669.28;1734333;82;21253;-69
2022/03/16 07:47:55;;;;;;;7.00;4.03;;;;;;;9.48;33.48;101674.20;1734174;82;21042;-68
2022/03/16 07:50:24;;;;;;;6.22;3.83;;;;;;;9.48;32.76;101675.09;1711353;82;21054;-68
2022/03/16 07:52:53;;;;;;;10.68;4.30;;;;;;;9.95;32.88;101663.27;1704735;84;20974;-67
2022/03/16 07:55:20;;;;;;;8.95;4.00;;;;;;;10.32;31.40;101671.25;1705576;83;21122;-68
2022/03/16 07:57:47;;;;;;;6.00;3.77;;;;;;;10.15;32.02;101668.33;1712565;83;21263;-68
2022/03/16 08:00:16;;;;;;;14.35;5.03;;;;;;;9.98;32.01;101667.16;1712563;83;21097;-68
2022/03/16 08:02:44;;;;;;;12.35;4.90;;;;;;;9.81;32.03;101673.05;1712548;83;21014;-69
2022/03/16 08:05:12;;;;;;;7.92;4.33;;;;;;;10.22;32.11;101670.00;1712655;83;21049;-68
2022/03/16 08:10:00;;;;;;;5.83;3.98;;;;;;;10.54;30.19;101666.16;1783151;79;22597;-68
2022/03/16 08:12:27;;;;;;;7.17;4.30;;;;;;;10.45;30.62;101664.96;1756529;81;21628;-68
2022/03/16 08:14:55;;;;;;;7.55;4.50;;;;;;;10.51;30.85;101662.23;1756345;81;21001;-70
2022/03/16 08:17:22;;;;;;;9.50;4.78;;;;;;;10.49;30.66;101671.48;1756399;81;21045;-70
2022/03/16 08:19:49;;;;;;;6.62;4.00;;;;;;;10.43;30.70;101658.38;1756420;81;20998;-69
2022/03/16 08:22:30;;;;;;;8.45;3.52;;;;;;;10.71;29.41;101669.44;1756471;81;21246;-68
2022/03/16 08:24:59;;;;;;;6.12;4.25;;;;;;;10.29;29.52;101661.17;1756860;81;21076;-68
2022/03/16 08:27:25;;;;;;;6.10;3.80;;;;;;;10.20;30.43;101664.33;1756458;81;21226;-69
2022/03/16 08:29:53;;;;;;;8.65;4.12;;;;;;;9.74;30.83;101670.05;1756305;81;21103;-69
2022/03/16 08:32:21;;;;;;;7.10;3.55;;;;;;;9.71;30.94;101670.06;1756527;81;21011;-69
2022/03/16 08:34:48;;;;;;;5.97;3.35;;;;;;;9.70;29.98;101677.09;1756793;81;21556;-69
2022/03/16 08:37:15;;;;;;;5.58;3.42;;;;;;;9.29;29.53;101675.65;1756531;81;22283;-68
2022/03/16 08:39:48;;;;;;;6.03;3.10;;;;;;;9.09;29.81;101673.59;1756874;81;21624;-69
2022/03/16 08:42:16;;;;;;;6.65;3.02;;;;;;;8.93;30.41;101675.02;1756679;81;21124;-69
2022/03/16 08:44:48;;;;;;;5.45;3.33;;;;;;;8.93;30.23;101671.08;1757405;81;21072;-69
2022/03/16 08:47:18;;;;;;;6.95;3.80;;;;;;;9.10;30.17;101673.59;1756255;81;21568;-69
2022/03/16 08:49:46;;;;;;;5.90;2.83;;;;;;;9.61;30.48;101675.84;1740202;81;21061;-68
2022/03/16 08:52:13;;;;;;;4.47;2.52;;;;;;;10.04;28.89;101665.80;1724696;83;21264;-69
2022/03/16 08:54:40;;;;;;;4.50;2.62;;;;;;;10.29;27.84;101666.44;1724512;82;21613;-70
2022/03/16 08:57:11;;;;;;;7.42;3.08;;;;;;;10.52;26.91;101673.20;1724760;82;21093;-69
2022/03/16 08:59:39;;;;;;;4.45;2.55;;;;;;;10.69;27.74;101663.31;1724818;82;21613;-68
2022/03/16 09:02:07;;;;;;;11.05;5.05;;;;;;;10.89;27.75;101656.92;1724675;82;21065;-68
2022/03/16 09:04:35;;;;;;;4.65;3.20;;;;;;;11.07;27.48;101657.97;1724845;83;21327;-68
2022/03/16 09:07:04;;;;;;;10.48;4.33;;;;;;;11.10;27.52;101665.83;1724655;82;21535;-69
2022/03/16 09:09:30;;;;;;;6.15;2.80;;;;;;;11.23;27.15;101661.71;1724762;82;21582;-69
2022/03/16 09:12:01;;;;;;;3.62;2.65;;;;;;;11.33;26.20;101660.66;1725065;82;21086;-71
2022/03/16 09:14:27;;;;;;;8.73;4.33;;;;;;;11.08;26.52;101663.66;1724990;82;21069;-71
2022/03/16 09:16:54;;;;;;;5.83;2.90;;;;;;;10.67;27.15;101669.50;1724943;82;21193;-69
2022/03/16 09:19:20;;;;;;;58.87;15.53;;;;;;;10.64;26.86;101661.19;1724837;82;21022;-69
2022/03/16 09:21:50;;;;;;;31.23;7.45;;;;;;;10.75;26.57;101661.52;1724409;83;21093;-69
2022/03/16 09:24:17;;;;;;;6.05;3.08;;;;;;;11.04;26.49;101661.98;1724555;83;21049;-67
2022/03/16 09:26:45;;;;;;;28.27;7.55;;;;;;;11.01;26.30;101676.50;1724468;82;21077;-67
2022/03/16 09:29:12;;;;;;;4.62;3.12;;;;;;;10.80;27.14;101673.72;1724401;82;21305;-69
2022/03/16 09:31:39;;;;;;;21.62;6.60;;;;;;;10.77;27.05;101675.55;1732114;82;21070;-68
2022/03/16 09:34:07;;;;;;;5.70;2.90;;;;;;;10.64;26.97;101678.31;1736017;82;21034;-68
2022/03/16 09:36:37;;;;;;;5.37;2.85;;;;;;;10.56;27.15;101674.92;1735838;82;21136;-68
2022/03/16 09:39:05;;;;;;;7.25;3.25;;;;;;;10.53;27.10;101681.52;1735968;82;21041;-67
2022/03/16 09:41:31;;;;;;;4.80;2.98;;;;;;;10.21;27.44;101672.64;1735973;82;21220;-67
2022/03/16 09:43:58;;;;;;;7.75;4.08;;;;;;;10.14;27.39;101678.86;1735820;82;21041;-68
2022/03/16 09:46:26;;;;;;;6.03;3.10;;;;;;;10.16;27.43;101676.64;1735842;82;21101;-67
2022/03/16 09:48:54;;;;;;;5.53;3.10;;;;;;;10.06;27.27;101673.69;1732841;82;21562;-68
2022/03/16 09:51:21;;;;;;;4.45;2.40;;;;;;;9.87;27.16;101676.50;1717313;83;21069;-68
2022/03/16 09:53:48;;;;;;;4.65;3.00;;;;;;;9.66;27.83;101680.63;1698737;83;21275;-68
2022/03/16 09:56:15;;;;;;;3.22;2.20;;;;;;;9.53;27.51;101696.09;1717275;83;21045;-68
2022/03/16 09:58:46;;;;;;;3.90;2.33;;;;;;;9.29;27.22;101678.27;1717068;83;21129;-68
2022/03/16 10:01:10;;;;;;;5.45;2.42;;;;;;;9.26;27.55;101690.14;1716794;83;21050;-68
2022/03/16 10:03:37;;;;;;;5.75;2.65;;;;;;;9.32;27.59;101695.81;1717194;83;21226;-68
2022/03/16 10:06:06;;;;;;;3.65;2.65;;;;;;;9.34;27.40;101693.60;1717180;83;21136;-69
2022/03/16 10:08:35;;;;;;;6.30;2.85;;;;;;;9.30;27.56;101685.30;1715956;83;21090;-68
2022/03/16 10:14:11;;;;;;;6.12;3.25;;;;;;;9.15;25.52;101695.91;1709310;84;21653;-68
2022/03/16 10:19:25;;;;;;;4.22;2.20;;;;;;;9.18;25.64;101690.65;1649361;84;21450;-68
2022/03/16 10:22:00;;;;;;;3.35;2.08;;;;;;;9.18;26.42;101697.22;1709131;84;21090;-68
2022/03/16 10:24:30;;;;;;;3.35;1.70;;;;;;;9.09;26.18;101697.24;1709161;84;21050;-68
2022/03/16 10:27:00;;;;;;;2.98;1.80;;;;;;;8.92;24.47;101694.72;1709682;83;21047;-69
2022/03/16 10:29:31;;;;;;;3.42;1.82;;;;;;;8.85;24.22;101691.25;1709266;84;21111;-68
2022/03/16 10:32:04;;;;;;;4.65;1.87;;;;;;;8.71;25.20;101693.07;1709090;84;21217;-69
2022/03/16 10:34:32;;;;;;;2.83;1.87;;;;;;;8.67;24.33;101693.95;1709129;84;21046;-68
2022/03/16 10:36:59;;;;;;;3.22;1.90;;;;;;;8.54;25.51;101695.33;1709406;83;21039;-68
2022/03/16 10:39:36;;;;;;;6.75;2.72;;;;;;;8.46;25.34;101694.91;1709230;84;21038;-67
2022/03/16 10:47:54;;;;;;;7.05;2.58;;;;;;;8.71;25.42;101692.62;1693418;83;21105;-68
2022/03/16 10:50:21;;;;;;;4.50;1.80;;;;;;;8.92;25.51;101690.33;1734609;82;21109;-69
2022/03/16 10:52:50;;;;;;;3.17;1.45;;;;;;;8.74;25.08;101693.05;1742664;82;21093;-67
2022/03/16 10:55:19;;;;;;;2.95;1.57;;;;;;;8.42;24.89;101691.44;1742629;82;21541;-69
2022/03/16 10:57:50;;;;;;;3.15;1.98;;;;;;;8.33;25.47;101688.81;1742828;82;21080;-68
2022/03/16 11:00:17;;;;;;;4.72;2.50;;;;;;;8.53;25.78;101689.62;1742610;82;21053;-69
2022/03/16 11:02:45;;;;;;;2.98;1.80;;;;;;;8.68;25.98;101682.59;1742805;82;21052;-68
2022/03/16 11:05:36;;;;;;;2.47;1.50;;;;;;;8.47;25.73;101696.23;1742676;82;21347;-69
2022/03/16 11:08:09;;;;;;;1.40;1.00;;;;;;;8.15;25.07;101694.97;1732170;82;21044;-68
2022/03/16 11:10:39;;;;;;;2.40;1.35;;;;;;;8.10;22.93;101703.30;1749301;82;20998;-68
2022/03/16 11:15:54;;;;;;;2.33;1.47;;;;;;;8.31;25.57;101684.00;1750693;81;21009;-69
2022/03/16 11:18:25;;;;;;;2.27;1.30;;;;;;;8.96;25.92;101684.18;1751011;82;21552;-69
2022/03/16 11:20:56;;;;;;;3.17;1.90;;;;;;;9.26;25.60;101685.33;1750592;82;21006;-68
2022/03/16 11:26:37;;;;;;;6.00;2.40;;;;;;;9.32;25.50;101687.48;1750632;81;21041;-69
2022/03/16 11:29:32;;;;;;;2.52;1.17;;;;;;;9.21;25.87;101678.79;1750592;82;21058;-68
2022/03/16 11:32:11;;;;;;;6.70;2.60;;;;;;;8.72;25.60;101688.23;1750538;81;21020;-68
2022/03/16 11:34:38;;;;;;;6.50;2.40;;;;;;;8.25;26.08;101686.63;1750805;82;21111;-68
2022/03/16 11:37:10;;;;;;;3.87;1.60;;;;;;;8.31;25.95;101684.00;1750569;81;21138;-68
2022/03/16 11:39:46;;;;;;;4.70;1.70;;;;;;;8.37;26.21;101685.27;1750764;81;21198;-69
2022/03/16 11:42:17;;;;;;;3.85;2.10;;;;;;;8.41;26.53;101687.05;1750552;82;21037;-68
2022/03/16 11:44:44;;;;;;;;;;;;;;;8.11;27.43;101680.10;1753290;82;21024;-69
2022/03/16 11:47:22;;;;;;;5.15;2.50;;;;;;;7.79;27.75;101679.70;1750712;82;20225;-69
2022/03/16 11:50:13;;;;;;;4.80;2.42;;;;;;;7.49;28.11;101693.25;1723200;82;21179;-68
2022/03/16 11:53:04;;;;;;;5.40;2.72;;;;;;;7.18;28.11;101679.25;1718680;83;21054;-68